createdAt,value
2019-03-04T00:02:01.856Z,11.80
2019-03-04T00:04:33.755Z,11.80
2019-03-04T00:07:25.595Z,11.80
2019-03-04T00:09:55.855Z,11.80
2019-03-04T00:12:31.323Z,11.80
2019-03-04T00:15:01.229Z,11.80
2019-03-04T00:17:31.003Z,11.80
2019-03-04T00:20:03.390Z,11.80
2019-03-04T00:22:36.696Z,11.80
2019-03-04T00:25:06.686Z,11.80
2019-03-04T00:27:36.531Z,11.80
2019-03-04T00:30:08.016Z,11.80
2019-03-04T00:32:38.102Z,11.80
2019-03-04T00:35:09.276Z,11.80
2019-03-04T00:37:42.546Z,11.80
2019-03-04T00:40:15.333Z,11.80
2019-03-04T00:42:45.293Z,11.80
2019-03-04T00:45:15.245Z,11.80
2019-03-04T00:47:45.473Z,11.80
2019-03-04T00:50:15.334Z,11.80
2019-03-04T00:52:45.290Z,11.70
2019-03-04T00:55:15.580Z,11.70
2019-03-04T00:57:45.589Z,11.70
2019-03-04T01:00:18.594Z,11.60
2019-03-04T01:02:53.761Z,11.60
2019-03-04T01:05:23.596Z,11.60
2019-03-04T01:07:55.291Z,11.60
2019-03-04T01:10:25.505Z,11.60
2019-03-04T01:12:55.293Z,11.60
2019-03-04T01:15:25.383Z,11.60
2019-03-04T01:17:55.675Z,11.50
2019-03-04T01:20:33.620Z,11.60
2019-03-04T01:23:03.484Z,11.60
2019-03-04T01:25:33.625Z,11.60
2019-03-04T01:28:03.515Z,11.70
2019-03-04T01:30:35.905Z,11.60
2019-03-04T01:33:05.949Z,11.60
2019-03-04T01:35:37.010Z,11.60
2019-03-04T01:38:06.913Z,11.60
2019-03-04T01:40:36.707Z,11.70
2019-03-04T01:43:07.032Z,11.70
2019-03-04T01:45:36.959Z,11.80
2019-03-04T01:48:06.866Z,11.70
2019-03-04T01:50:36.735Z,11.70
2019-03-04T01:53:07.245Z,11.70
2019-03-04T01:55:37.192Z,11.70
2019-03-04T01:58:07.477Z,11.70
2019-03-04T02:00:37.763Z,11.70
2019-03-04T02:03:10.543Z,11.70
2019-03-04T02:05:40.855Z,11.70
2019-03-04T02:08:10.945Z,11.70
2019-03-04T02:10:40.738Z,11.80
2019-03-04T02:13:10.746Z,11.80
2019-03-04T02:15:40.586Z,11.80
2019-03-04T02:18:10.370Z,11.80
2019-03-04T02:20:40.189Z,11.80
2019-03-04T02:23:10.314Z,11.90
2019-03-04T02:26:27.663Z,12.00
2019-03-04T02:28:57.802Z,12.00
2019-03-04T02:31:28.100Z,12.00
2019-03-04T02:33:58.454Z,12.10
2019-03-04T02:36:28.254Z,12.10
2019-03-04T02:38:58.664Z,12.10
2019-03-04T02:41:28.750Z,12.10
2019-03-04T02:43:58.752Z,12.00
2019-03-04T02:46:30.870Z,12.00
2019-03-04T02:49:00.907Z,12.00
2019-03-04T02:51:30.736Z,11.90
2019-03-04T02:54:09.011Z,11.90
2019-03-04T02:56:38.876Z,11.90
2019-03-04T02:59:08.643Z,11.90
2019-03-04T03:01:38.734Z,11.90
2019-03-04T03:04:09.796Z,11.90
2019-03-04T03:06:39.567Z,11.90
2019-03-04T03:09:11.161Z,11.90
2019-03-04T03:11:41.262Z,11.90
2019-03-04T03:14:11.083Z,11.90
2019-03-04T03:16:43.624Z,11.90
2019-03-04T03:19:13.513Z,11.80
2019-03-04T03:21:43.620Z,11.80
2019-03-04T03:24:13.505Z,11.80
2019-03-04T03:26:43.334Z,11.70
2019-03-04T03:29:13.185Z,11.70
2019-03-04T03:31:43.645Z,11.70
2019-03-04T03:34:13.562Z,11.70
2019-03-04T03:36:43.447Z,11.70
2019-03-04T03:39:19.112Z,11.70
2019-03-04T03:41:49.176Z,11.60
2019-03-04T03:44:22.105Z,11.60
2019-03-04T03:46:51.962Z,11.70
2019-03-04T03:49:26.516Z,11.60
2019-03-04T03:51:56.323Z,11.70
2019-03-04T03:54:26.205Z,11.60
2019-03-04T03:56:56.420Z,11.70
2019-03-04T03:59:26.194Z,11.70
2019-03-04T04:01:56.163Z,11.70
2019-03-04T04:04:26.494Z,11.70
2019-03-04T04:06:56.296Z,11.70
2019-03-04T04:09:26.296Z,11.70
2019-03-04T04:11:56.498Z,11.80
2019-03-04T04:14:28.239Z,11.80
2019-03-04T04:16:57.753Z,11.80
2019-03-04T04:19:28.919Z,11.90
2019-03-04T04:21:58.985Z,11.90
2019-03-04T04:24:28.969Z,11.90
2019-03-04T04:27:00.153Z,11.90
2019-03-04T04:29:30.316Z,12.00
2019-03-04T04:32:00.084Z,12.10
2019-03-04T04:34:30.648Z,12.10
2019-03-04T04:37:00.443Z,12.20
2019-03-04T04:39:30.199Z,12.20
2019-03-04T04:42:00.358Z,12.20
2019-03-04T04:44:30.146Z,12.20
2019-03-04T04:47:02.761Z,12.30
2019-03-04T04:49:50.053Z,12.30
2019-03-04T04:52:19.824Z,12.30
2019-03-04T04:54:49.620Z,12.30
2019-03-04T04:57:19.944Z,12.40
2019-03-04T04:59:49.786Z,12.50
2019-03-04T05:02:19.611Z,12.50
2019-03-04T05:04:49.879Z,12.60
2019-03-04T05:07:21.920Z,12.60
2019-03-04T05:09:52.163Z,12.60
2019-03-04T05:12:22.530Z,12.50
2019-03-04T05:14:52.314Z,12.50
2019-03-04T05:17:22.078Z,12.40
2019-03-04T05:19:53.485Z,12.40
2019-03-04T05:22:23.304Z,12.50
2019-03-04T05:24:53.130Z,12.50
2019-03-04T05:27:23.250Z,12.50
2019-03-04T05:29:53.624Z,12.50
2019-03-04T05:32:23.411Z,12.50
2019-03-04T05:34:53.253Z,12.50
2019-03-04T05:37:23.105Z,12.50
2019-03-04T05:39:53.442Z,12.50
2019-03-04T05:42:24.601Z,12.50
2019-03-04T05:44:54.644Z,12.60
2019-03-04T05:47:24.633Z,12.60
2019-03-04T05:49:54.525Z,12.50
2019-03-04T05:52:25.363Z,12.50
2019-03-04T05:54:55.521Z,12.50
2019-03-04T05:57:25.335Z,12.50
2019-03-04T05:59:55.123Z,12.50
2019-03-04T06:02:25.130Z,12.50
2019-03-04T06:04:58.423Z,12.50
2019-03-04T06:07:53.730Z,12.20
2019-03-04T06:10:24.785Z,11.80
2019-03-04T06:12:55.177Z,11.10
2019-03-04T06:15:28.919Z,10.60
2019-03-04T06:18:00.569Z,10.10
2019-03-04T06:20:31.920Z,9.60
2019-03-04T06:23:02.079Z,9.10
2019-03-04T06:25:32.991Z,8.70
2019-03-04T06:28:02.965Z,8.50
2019-03-04T06:30:33.294Z,8.30
2019-03-04T06:33:03.330Z,8.30
2019-03-04T06:35:33.625Z,8.20
2019-03-04T06:38:03.779Z,8.10
2019-03-04T06:40:33.776Z,8.10
2019-03-04T06:43:03.632Z,8.00
2019-03-04T06:45:33.611Z,8.00
2019-03-04T06:48:04.520Z,8.00
2019-03-04T06:50:50.311Z,7.90
2019-03-04T06:53:51.296Z,7.90
2019-03-04T06:56:36.964Z,7.80
2019-03-04T06:59:15.065Z,7.80
2019-03-04T07:01:49.688Z,7.60
2019-03-04T07:04:49.253Z,7.60
2019-03-04T07:07:19.734Z,7.50
2019-03-04T07:09:49.882Z,7.50
2019-03-04T07:12:19.760Z,7.50
2019-03-04T07:14:49.706Z,7.50
2019-03-04T07:17:23.620Z,7.60
2019-03-04T07:20:05.377Z,7.60
2019-03-04T07:22:38.437Z,7.70
2019-03-04T07:25:09.169Z,7.70
2019-03-04T07:27:39.225Z,7.80
2019-03-04T07:30:11.022Z,7.80
2019-03-04T07:32:41.164Z,7.80
2019-03-04T07:35:11.220Z,7.90
2019-03-04T07:37:41.088Z,7.80
2019-03-04T07:40:12.129Z,7.90
2019-03-04T07:42:41.942Z,7.90
2019-03-04T07:45:12.607Z,8.00
2019-03-04T07:47:42.478Z,8.10
2019-03-04T07:50:14.328Z,8.30
2019-03-04T07:52:44.173Z,8.40
2019-03-04T07:55:15.579Z,8.50
2019-03-04T07:57:45.479Z,8.50
2019-03-04T08:00:15.288Z,8.50
2019-03-04T08:02:47.402Z,8.50
2019-03-04T08:05:20.085Z,8.50
2019-03-04T08:07:51.875Z,8.50
2019-03-04T08:11:12.798Z,8.50
2019-03-04T08:13:50.279Z,8.50
2019-03-04T08:16:20.255Z,8.50
2019-03-04T08:18:51.445Z,8.50
2019-03-04T08:21:27.658Z,8.50
2019-03-04T08:23:57.527Z,8.60
2019-03-04T08:26:27.389Z,8.60
2019-03-04T08:28:58.743Z,8.60
2019-03-04T08:31:28.990Z,8.60
2019-03-04T08:34:02.717Z,8.60
2019-03-04T08:36:32.860Z,8.60
2019-03-04T08:39:02.710Z,8.60
2019-03-04T08:41:33.810Z,8.70
2019-03-04T08:44:07.762Z,8.60
2019-03-04T08:46:38.899Z,8.70
2019-03-04T08:49:08.976Z,8.70
2019-03-04T08:51:51.251Z,8.90
2019-03-04T08:54:21.238Z,9.00
2019-03-04T08:56:51.109Z,9.10
2019-03-04T08:59:23.010Z,9.20
2019-03-04T09:01:59.375Z,9.30
2019-03-04T09:04:27.996Z,9.50
2019-03-04T09:06:59.873Z,9.80
2019-03-04T09:09:31.250Z,10.00
2019-03-04T09:12:01.233Z,10.20
2019-03-04T09:14:43.890Z,10.30
2019-03-04T09:17:17.577Z,10.40
2019-03-04T09:19:48.079Z,10.50
2019-03-04T09:22:18.424Z,10.40
2019-03-04T09:24:48.329Z,10.30
2019-03-04T09:27:18.829Z,10.30
2019-03-04T09:29:50.195Z,10.30
2019-03-04T09:32:32.705Z,10.30
2019-03-04T09:35:01.565Z,10.30
2019-03-04T09:37:32.508Z,10.20
2019-03-04T09:40:06.261Z,10.20
2019-03-04T09:42:36.420Z,10.10
2019-03-04T09:45:11.625Z,9.90
2019-03-04T09:47:43.164Z,9.80
2019-03-04T09:50:19.321Z,9.70
2019-03-04T09:52:52.444Z,9.50
2019-03-04T09:55:33.215Z,9.30
2019-03-04T09:58:05.170Z,8.90
2019-03-04T10:00:51.742Z,8.60
2019-03-04T10:03:43.705Z,8.40
2019-03-04T10:06:44.629Z,8.30
2019-03-04T10:09:46.363Z,8.20
2019-03-04T10:13:01.329Z,8.20
2019-03-04T10:16:22.595Z,8.20
2019-03-04T10:19:44.025Z,8.30
2019-03-04T10:22:58.555Z,8.30
2019-03-04T10:26:09.444Z,8.30
2019-03-04T10:29:22.608Z,8.40
2019-03-04T10:32:39.648Z,8.40
2019-03-04T10:35:46.961Z,8.40
2019-03-04T10:38:42.927Z,8.50
2019-03-04T10:42:05.841Z,8.50
2019-03-04T10:45:10.788Z,8.50
2019-03-04T10:47:52.335Z,8.50
2019-03-04T10:50:29.809Z,8.60
2019-03-04T10:53:06.396Z,8.60
2019-03-04T10:56:07.738Z,8.50
2019-03-04T10:58:39.051Z,8.50
2019-03-04T11:01:11.555Z,8.50
2019-03-04T11:03:56.053Z,8.50
2019-03-04T11:09:28.398Z,8.40
2019-03-04T11:12:03.708Z,8.10
2019-03-04T11:14:37.303Z,7.60
2019-03-04T11:17:34.296Z,7.10
2019-03-04T11:19:49.003Z,7.00
2019-03-04T11:22:31.407Z,6.90
2019-03-04T11:25:02.528Z,6.90
2019-03-04T11:27:43.440Z,6.90
2019-03-04T11:30:22.004Z,6.80
2019-03-04T11:33:02.821Z,6.80
2019-03-04T11:35:41.503Z,6.80
2019-03-04T11:38:48.089Z,6.90
2019-03-04T11:41:46.720Z,7.00
2019-03-04T11:44:21.260Z,7.00
2019-03-04T11:46:54.762Z,7.10
2019-03-04T11:49:34.454Z,7.20
2019-03-04T11:52:08.390Z,7.20
2019-03-04T11:54:40.387Z,7.30
2019-03-04T11:57:14.353Z,7.30
2019-03-04T11:59:48.921Z,7.40
2019-03-04T12:02:38.594Z,7.40
2019-03-04T12:05:04.741Z,7.40
2019-03-04T12:07:34.942Z,7.50
2019-03-04T12:10:12.549Z,7.50
2019-03-04T12:12:42.857Z,7.60
2019-03-04T12:15:23.484Z,7.60
2019-03-04T12:18:02.446Z,7.50
2019-03-04T12:20:40.231Z,7.50
2019-03-04T12:23:13.528Z,7.50
2019-03-04T12:25:49.663Z,7.40
2019-03-04T12:28:22.570Z,7.50
2019-03-04T12:30:56.907Z,7.70
2019-03-04T12:33:42.188Z,7.80
2019-03-04T12:36:14.947Z,7.80
2019-03-04T12:38:52.464Z,7.80
2019-03-04T12:41:25.731Z,7.80
2019-03-04T12:44:07.406Z,7.80
2019-03-04T12:46:44.344Z,7.80
2019-03-04T12:49:20.414Z,7.90
2019-03-04T12:52:18.747Z,7.90
2019-03-04T12:54:57.338Z,7.90
2019-03-04T12:57:34.502Z,8.00
2019-03-04T13:00:33.830Z,8.00
2019-03-04T13:03:07.805Z,8.00
2019-03-04T13:05:46.419Z,8.10
2019-03-04T13:08:25.925Z,8.00
2019-03-04T13:11:06.071Z,8.00
2019-03-04T13:13:41.224Z,7.80
2019-03-04T13:16:15.003Z,7.70
2019-03-04T13:18:59.722Z,7.70
2019-03-04T13:21:30.350Z,7.60
2019-03-04T13:24:07.319Z,7.60
2019-03-04T13:26:41.700Z,7.60
2019-03-04T13:29:14.245Z,7.60
2019-03-04T13:31:46.494Z,7.50
2019-03-04T13:34:21.710Z,7.60
2019-03-04T13:36:53.169Z,7.70
2019-03-04T13:39:26.624Z,7.80
2019-03-04T13:42:02.520Z,7.80
2019-03-04T13:44:50.335Z,7.80
2019-03-04T13:47:27.626Z,7.70
2019-03-04T13:50:12.501Z,7.70
2019-03-04T13:55:47.585Z,7.80
2019-03-04T13:58:22.843Z,7.90
2019-03-04T14:04:06.408Z,7.80
2019-03-04T14:07:06.123Z,7.90
2019-03-04T14:10:08.582Z,7.80
2019-03-04T14:12:42.436Z,7.90
2019-03-04T14:15:38.334Z,7.90
2019-03-04T14:18:27.208Z,7.90
2019-03-04T14:21:15.130Z,7.90
2019-03-04T14:26:39.989Z,8.00
2019-03-04T14:29:12.015Z,8.00
2019-03-04T14:31:47.089Z,8.00
2019-03-04T14:34:20.646Z,8.00
2019-03-04T14:36:59.346Z,8.00
2019-03-04T14:39:40.086Z,8.00
2019-03-04T14:42:18.358Z,7.90
2019-03-04T14:44:49.187Z,7.90
2019-03-04T14:47:31.109Z,7.90
2019-03-04T14:50:14.571Z,7.80
2019-03-04T14:52:47.043Z,7.80
2019-03-04T14:55:20.877Z,7.80
2019-03-04T14:58:14.626Z,7.90
2019-03-04T15:00:51.719Z,8.00
2019-03-04T15:03:24.599Z,8.10
2019-03-04T15:06:17.177Z,8.10
2019-03-04T15:08:48.628Z,8.20
2019-03-04T15:11:26.834Z,8.30
2019-03-04T15:14:01.555Z,8.40
2019-03-04T15:16:32.083Z,8.50
2019-03-04T15:19:11.289Z,8.60
2019-03-04T15:21:42.173Z,8.60
2019-03-04T15:24:24.532Z,8.70
2019-03-04T15:27:09.739Z,8.70
2019-03-04T15:29:42.559Z,8.70
2019-03-04T15:32:13.169Z,8.70
2019-03-04T15:34:57.429Z,8.70
2019-03-04T15:37:27.480Z,8.70
2019-03-04T15:39:58.035Z,8.60
2019-03-04T15:42:42.644Z,8.60
2019-03-04T15:45:12.940Z,8.60
2019-03-04T15:47:53.919Z,8.60
2019-03-04T15:50:26.837Z,8.60
2019-03-04T15:53:01.094Z,8.60
2019-03-04T15:55:31.728Z,8.60
2019-03-04T15:58:02.216Z,8.60
2019-03-04T16:00:37.149Z,8.60
2019-03-04T16:03:13.613Z,8.60
2019-03-04T16:06:04.374Z,8.50
2019-03-04T16:08:37.155Z,8.50
2019-03-04T16:11:09.331Z,8.50
2019-03-04T16:13:40.139Z,8.50
2019-03-04T16:16:13.948Z,8.40
2019-03-04T16:18:44.005Z,8.40
